Time;durP1;ratioP1;P1;durP2;ratioP2;P2;SDS_P1;SDS_P2;PMS_P1;PMS_P2;Temp;Humidity;BMP_temperature;BMP_pressure;BME280_temperature;BME280_humidity;BME280_pressure;Samples;Min_cycle;Max_cycle;Signal;HPM_P1;HPM_P2
2023/12/15 00:00:31;;;;;;;;;16.00;12.25;;;;;9.69;78.21;102525.03;5059220;28;45388;-77
2023/12/15 00:02:57;;;;;;;;;22.75;15.25;;;;;9.69;78.49;102521.53;5061012;28;45378;-72
2023/12/15 00:05:22;;;;;;;;;18.50;13.50;;;;;9.49;78.95;102494.69;5039652;28;45502;-75
2023/12/15 00:07:48;;;;;;;;;16.50;13.75;;;;;9.05;79.07;102442.63;5060084;28;46057;-78
2023/12/15 00:10:14;;;;;;;;;16.00;12.00;;;;;9.86;78.54;102574.44;5059524;28;45379;-75
2023/12/15 00:12:39;;;;;;;;;13.75;12.00;;;;;9.87;78.96;102568.38;5060437;28;45529;-79
2023/12/15 00:15:05;;;;;;;;;13.00;11.00;;;;;9.81;79.47;102561.22;5060799;28;45504;-78
2023/12/15 00:17:31;;;;;;;;;12.00;9.25;;;;;9.74;79.79;102573.19;5058934;28;45273;-78
2023/12/15 00:19:57;;;;;;;;;10.75;9.50;;;;;9.42;79.69;102516.22;5059367;28;45313;-78
2023/12/15 00:22:22;;;;;;;;;14.25;11.00;;;;;9.78;79.25;102582.06;5059404;28;45330;-77
2023/12/15 00:24:48;;;;;;;;;13.00;10.25;;;;;9.81;79.92;102578.66;5057643;28;45510;-76
2023/12/15 00:27:13;;;;;;;;;9.50;9.25;;;;;9.59;79.79;102533.41;5058247;28;45436;-77
2023/12/15 00:29:39;;;;;;;;;15.25;14.50;;;;;9.82;79.30;102575.19;5060059;28;45391;-77
2023/12/15 00:32:04;;;;;;;;;13.50;10.25;;;;;9.89;80.09;102580.66;5059306;28;45510;-80
2023/12/15 00:34:30;;;;;;;;;10.75;8.50;;;;;9.86;79.85;102570.09;5060214;28;45521;-76
2023/12/15 00:36:56;;;;;;;;;12.25;10.75;;;;;9.89;80.40;102585.03;5060205;28;46117;-74
2023/12/15 00:39:21;;;;;;;;;9.00;8.75;;;;;9.75;79.80;102555.75;5059302;28;45432;-76
2023/12/15 00:41:47;;;;;;;;;13.75;9.25;;;;;9.90;80.11;102585.09;5058527;28;45530;-78
2023/12/15 00:44:12;;;;;;;;;10.50;8.25;;;;;9.88;80.07;102585.88;5053560;28;45464;-78
2023/12/15 00:46:38;;;;;;;;;12.25;8.50;;;;;9.83;80.65;102590.06;5044532;28;46774;-80
2023/12/15 00:49:04;;;;;;;;;11.75;9.00;;;;;9.74;80.70;102575.81;5054953;28;45280;-76
2023/12/15 00:51:30;;;;;;;;;13.00;8.00;;;;;9.77;81.28;102598.56;5058282;28;45452;-77
2023/12/15 00:53:55;;;;;;;;;13.50;9.50;;;;;9.71;81.66;102594.03;5058118;28;45564;-74
2023/12/15 00:56:21;;;;;;;;;8.75;8.75;;;;;8.36;82.04;102369.56;5057391;28;46726;-75
2023/12/15 00:58:47;;;;;;;;;11.00;9.00;;;;;9.40;82.14;102567.63;5048264;28;45405;-76
2023/12/15 01:01:13;;;;;;;;;13.00;10.50;;;;;9.61;82.50;102588.41;5058247;28;45416;-78
2023/12/15 01:03:38;;;;;;;;;8.75;8.00;;;;;9.65;82.50;102592.91;5053021;28;45566;-74
2023/12/15 01:06:04;;;;;;;;;11.25;9.75;;;;;9.67;82.12;102592.13;5056145;28;46219;-75
2023/12/15 01:08:36;;;;;;;;;9.50;7.00;;;;;9.71;82.05;102583.56;5042348;28;45493;-77
2023/12/15 01:11:03;;;;;;;;;9.00;8.25;;;;;9.76;81.34;102581.97;5051561;28;46003;-75
2023/12/15 01:13:28;;;;;;;;;10.00;9.00;;;;;9.77;81.30;102578.56;5058775;28;45490;-77
2023/12/15 01:15:54;;;;;;;;;14.50;9.25;;;;;9.80;81.61;102579.47;5058581;28;45387;-76
2023/12/15 01:18:19;;;;;;;;;13.00;10.75;;;;;9.81;81.68;102576.91;5058158;28;45507;-73
2023/12/15 01:20:47;;;;;;;;;11.50;10.75;;;;;9.70;81.66;102560.81;5057732;28;45384;-79
2023/12/15 01:23:13;;;;;;;;;15.25;11.00;;;;;9.63;81.88;102553.59;5059402;28;45506;-78
2023/12/15 01:25:38;;;;;;;;;10.75;10.75;;;;;9.85;81.36;102585.78;5059257;28;45407;-73
2023/12/15 01:28:04;;;;;;;;;15.75;13.00;;;;;9.72;81.28;102551.31;5058758;28;45450;-74
2023/12/15 01:30:30;;;;;;;;;15.25;11.50;;;;;9.72;81.36;102561.78;5058867;28;45412;-73
2023/12/15 01:32:55;;;;;;;;;14.75;10.50;;;;;9.91;81.64;102579.00;5058951;28;45447;-72
2023/12/15 01:35:21;;;;;;;;;12.00;9.25;;;;;9.93;80.98;102579.94;5057058;28;48289;-76
2023/12/15 01:37:47;;;;;;;;;12.75;8.25;;;;;9.97;81.38;102583.56;5056629;28;45435;-75
2023/12/15 01:40:13;;;;;;;;;14.75;11.00;;;;;9.68;81.19;102532.81;5044702;28;45498;-75
2023/12/15 01:42:38;;;;;;;;;12.25;8.25;;;;;10.01;81.14;102595.91;5059457;28;45517;-75
2023/12/15 01:45:04;;;;;;;;;11.50;10.00;;;;;10.03;81.10;102589.00;5046781;28;45549;-75
2023/12/15 01:47:31;;;;;;;;;9.75;8.25;;;;;9.99;81.15;102571.44;5058343;28;45415;-74
2023/12/15 01:49:57;;;;;;;;;13.50;8.25;;;;;9.46;80.92;102481.50;5058893;28;45328;-75
2023/12/15 01:52:23;;;;;;;;;18.75;10.00;;;;;10.09;80.79;102596.19;5061740;28;45359;-74
2023/12/15 01:54:50;;;;;;;;;12.75;12.00;;;;;10.09;80.59;102607.53;5060659;28;45502;-73
2023/12/15 01:57:16;;;;;;;;;12.50;8.25;;;;;10.10;80.83;102604.06;5068596;28;45435;-73
2023/12/15 01:59:49;;;;;;;;;11.75;11.75;;;;;9.81;81.61;102578.66;5052440;28;45331;-74
2023/12/15 02:02:17;;;;;;;;;15.50;12.50;;;;;9.89;81.38;102606.84;5057547;28;45492;-73
2023/12/15 02:04:42;;;;;;;;;12.75;10.75;;;;;9.63;81.95;102576.25;5054377;28;46857;-73
2023/12/15 02:07:08;;;;;;;;;15.75;9.50;;;;;9.88;82.27;102620.78;5042310;28;45393;-73
2023/12/15 02:09:34;;;;;;;;;13.00;11.50;;;;;9.38;82.40;102541.41;5056522;28;45750;-74
2023/12/15 02:12:00;;;;;;;;;14.75;13.50;;;;;9.88;82.52;102628.63;5047062;28;45445;-75
2023/12/15 02:14:26;;;;;;;;;12.25;12.25;;;;;9.74;82.06;102596.75;5055392;28;45553;-75
2023/12/15 02:16:52;;;;;;;;;21.75;17.75;;;;;9.38;82.37;102530.94;5044634;28;45472;-73
2023/12/15 02:19:19;;;;;;;;;19.50;15.25;;;;;9.65;82.38;102580.72;5056979;28;45495;-73
2023/12/15 02:21:44;;;;;;;;;16.00;16.00;;;;;10.02;81.93;102644.81;5057330;28;45493;-71
2023/12/15 02:24:10;;;;;;;;;17.75;15.25;;;;;10.05;81.79;102639.69;5047857;28;46218;-74
2023/12/15 02:26:45;;;;;;;;;18.50;17.25;;;;;10.02;82.92;102629.13;5052478;28;45496;-74
2023/12/15 02:29:11;;;;;;;;;19.25;17.00;;;;;9.70;82.43;102573.91;5054938;28;45387;-73
2023/12/15 02:31:42;;;;;;;;;16.00;13.50;;;;;10.09;82.30;102635.47;5071096;28;45282;-73
2023/12/15 02:34:08;;;;;;;;;23.50;16.25;;;;;10.12;82.56;102630.31;5052094;28;46856;-74
2023/12/15 02:36:35;;;;;;;;;17.25;15.25;;;;;10.14;82.42;102637.38;5051342;28;45830;-72
2023/12/15 02:39:03;;;;;;;;;23.00;17.25;;;;;10.16;82.70;102626.97;5058309;28;45291;-73
2023/12/15 02:41:30;;;;;;;;;19.00;15.25;;;;;9.99;82.17;102610.69;5055955;28;45422;-73
2023/12/15 02:43:56;;;;;;;;;20.75;14.75;;;;;10.23;82.19;102641.13;5057565;28;45425;-72
2023/12/15 02:46:22;;;;;;;;;17.50;15.50;;;;;10.25;81.75;102634.22;5055825;28;45563;-71
2023/12/15 02:48:47;;;;;;;;;20.25;17.25;;;;;10.25;81.13;102636.84;5055996;28;45341;-71
2023/12/15 02:51:30;;;;;;;;;21.50;17.50;;;;;10.22;81.21;102631.53;5056751;28;45498;-71
2023/12/15 02:54:00;;;;;;;;;17.25;14.75;;;;;10.31;81.41;102648.47;5056379;28;45880;-72
2023/12/15 02:56:27;;;;;;;;;17.75;15.50;;;;;10.33;81.27;102654.66;5057919;28;45395;-72
2023/12/15 02:58:52;;;;;;;;;15.00;12.50;;;;;10.35;80.96;102654.72;5059495;28;45665;-71
2023/12/15 03:01:19;;;;;;;;;14.50;12.75;;;;;10.36;80.71;102659.97;5063248;28;45470;-73
2023/12/15 03:03:45;;;;;;;;;19.50;14.50;;;;;10.38;80.48;102667.91;5062899;28;45517;-74
2023/12/15 03:06:10;;;;;;;;;17.75;14.75;;;;;10.39;80.56;102667.97;5064573;28;45438;-74
2023/12/15 03:08:36;;;;;;;;;18.75;14.75;;;;;10.24;80.39;102642.94;5063324;28;45516;-74
2023/12/15 03:11:02;;;;;;;;;19.50;14.00;;;;;10.44;80.30;102686.47;5060823;28;45440;-71
2023/12/15 03:13:28;;;;;;;;;17.00;14.25;;;;;10.39;79.88;102675.81;5061023;28;46512;-74
2023/12/15 03:16:05;;;;;;;;;14.25;14.25;;;;;10.48;79.59;102697.91;5060092;28;45504;-74
2023/12/15 03:18:31;;;;;;;;;13.25;10.50;;;;;10.49;79.70;102703.22;5045014;28;45579;-77
2023/12/15 03:21:01;;;;;;;;;17.25;13.75;;;;;9.75;79.35;102585.44;5059402;28;45332;-74
2023/12/15 03:23:26;;;;;;;;;19.00;17.00;;;;;10.51;79.47;102711.09;5056007;28;45475;-74
2023/12/15 03:25:52;;;;;;;;;17.75;14.25;;;;;9.96;79.29;102613.19;5046479;28;45673;-75
2023/12/15 03:28:17;;;;;;;;;15.25;13.50;;;;;10.33;79.27;102674.72;5059422;28;45643;-73
2023/12/15 03:30:43;;;;;;;;;14.00;10.75;;;;;10.20;79.17;102660.25;5059023;28;45978;-73
2023/12/15 03:33:10;;;;;;;;;12.00;10.50;;;;;10.45;79.19;102708.31;5060209;28;46189;-73
2023/12/15 03:35:36;;;;;;;;;11.25;10.50;;;;;9.75;78.85;102587.16;5058615;28;45533;-74
2023/12/15 03:38:03;;;;;;;;;18.00;13.50;;;;;10.47;78.82;102711.88;5059750;28;45308;-74
2023/12/15 03:40:29;;;;;;;;;17.25;14.25;;;;;10.30;78.30;102690.34;5057897;28;45466;-74
2023/12/15 03:42:55;;;;;;;;;28.25;17.75;;;;;10.22;78.57;102695.25;5058486;28;46026;-74
2023/12/15 03:45:20;;;;;;;;;15.50;12.25;;;;;9.90;78.73;102637.44;5057763;28;47003;-73
2023/12/15 03:47:46;;;;;;;;;15.25;10.50;;;;;10.33;78.77;102716.63;5060577;28;45581;-75
2023/12/15 03:50:11;;;;;;;;;15.50;13.25;;;;;10.35;78.95;102710.59;5058785;28;45355;-75
2023/12/15 03:52:38;;;;;;;;;15.50;12.50;;;;;10.39;78.83;102725.59;5057225;28;45435;-74
2023/12/15 03:55:04;;;;;;;;;20.50;14.25;;;;;10.02;78.77;102663.16;5059148;28;45289;-73
2023/12/15 03:57:29;;;;;;;;;17.75;16.25;;;;;10.22;78.42;102710.97;5058546;28;45463;-73
2023/12/15 03:59:55;;;;;;;;;17.25;14.25;;;;;10.08;78.34;102683.41;5058689;28;45459;-74
2023/12/15 04:02:20;;;;;;;;;20.00;14.50;;;;;10.46;78.48;102755.50;5058126;28;46386;-73
2023/12/15 04:04:46;;;;;;;;;19.50;15.75;;;;;10.40;78.53;102747.44;5058913;28;45172;-75
2023/12/15 04:07:12;;;;;;;;;15.50;12.00;;;;;10.21;78.79;102708.31;5058066;28;45377;-74
2023/12/15 04:09:38;;;;;;;;;16.00;11.25;;;;;10.32;78.64;102734.06;5059046;28;45466;-75
2023/12/15 04:12:04;;;;;;;;;17.75;14.25;;;;;10.52;78.80;102768.81;5058549;28;46094;-74
2023/12/15 04:14:31;;;;;;;;;17.25;12.75;;;;;10.32;78.69;102744.56;5058114;28;45432;-74
2023/12/15 04:16:57;;;;;;;;;15.75;12.50;;;;;10.40;78.11;102742.19;5058702;28;45446;-74
2023/12/15 04:19:23;;;;;;;;;15.50;14.00;;;;;10.57;78.35;102777.72;5059415;28;45353;-74
2023/12/15 04:21:48;;;;;;;;;19.50;14.00;;;;;10.58;78.33;102779.53;5059403;28;46426;-74
2023/12/15 04:24:14;;;;;;;;;19.00;13.25;;;;;10.46;78.18;102768.59;5059782;28;45455;-74
2023/12/15 04:26:40;;;;;;;;;16.25;15.50;;;;;10.51;78.11;102779.22;5058610;28;45540;-71
2023/12/15 04:29:05;;;;;;;;;21.50;16.00;;;;;10.49;78.29;102775.69;5058710;28;45240;-73
2023/12/15 04:31:31;;;;;;;;;15.75;14.50;;;;;10.44;78.21;102772.91;5056933;28;47011;-74
2023/12/15 04:33:56;;;;;;;;;18.50;14.25;;;;;10.39;78.90;102785.84;5059757;28;45357;-74
2023/12/15 04:36:25;;;;;;;;;16.00;15.00;;;;;10.45;78.42;102787.78;5067454;28;45267;-75
2023/12/15 04:38:59;;;;;;;;;17.75;14.00;;;;;10.26;78.90;102762.63;5071700;28;45285;-73
2023/12/15 04:41:26;;;;;;;;;14.50;12.25;;;;;10.47;78.74;102796.59;5056780;28;46859;-74
2023/12/15 04:43:52;;;;;;;;;18.75;16.50;;;;;10.45;78.89;102798.25;5058447;28;45510;-74
2023/12/15 04:46:23;;;;;;;;;11.00;10.50;;;;;9.23;78.46;102599.25;5057358;28;45449;-73
2023/12/15 04:48:49;;;;;;;;;17.00;13.25;;;;;10.35;78.91;102817.13;5058642;28;45353;-73
2023/12/15 04:51:14;;;;;;;;;22.50;15.25;;;;;10.30;79.09;102814.31;5057277;28;47992;-71
2023/12/15 04:53:40;;;;;;;;;17.50;13.00;;;;;10.30;79.16;102816.06;5058084;28;45465;-75
2023/12/15 04:56:05;;;;;;;;;15.00;11.50;;;;;10.42;78.60;102824.34;5058162;28;45314;-73
2023/12/15 04:58:31;;;;;;;;;12.25;8.25;;;;;10.44;78.92;102827.94;5058370;28;45360;-74
2023/12/15 05:01:00;;;;;;;;;13.00;12.25;;;;;9.87;78.58;102738.50;5057982;28;46327;-76
2023/12/15 05:03:26;;;;;;;;;17.25;14.25;;;;;10.19;78.31;102792.94;5057768;28;45621;-73
2023/12/15 05:05:51;;;;;;;;;19.75;14.75;;;;;10.15;78.73;102780.56;5058446;28;45259;-73
2023/12/15 05:08:17;;;;;;;;;19.50;14.00;;;;;10.38;79.11;102822.44;5056481;28;45695;-74
2023/12/15 05:10:42;;;;;;;;;11.25;7.75;;;;;10.49;78.41;102836.84;5055989;28;45552;-74
2023/12/15 05:13:21;;;;;;;;;18.00;15.00;;;;;10.49;78.80;102841.19;5058619;28;45496;-75
2023/12/15 05:15:47;;;;;;;;;12.50;10.25;;;;;10.48;79.16;102848.13;5057238;28;45424;-75
2023/12/15 05:18:13;;;;;;;;;13.25;9.25;;;;;10.43;79.30;102847.09;5058364;28;45521;-75
2023/12/15 05:20:45;;;;;;;;;12.75;11.50;;;;;10.04;79.48;102781.91;5058520;28;46286;-74
2023/12/15 05:23:17;;;;;;;;;10.50;7.50;;;;;9.96;79.14;102767.63;5058255;28;45526;-75
2023/12/15 05:25:45;;;;;;;;;17.25;14.25;;;;;10.45;79.05;102852.38;5058655;28;45496;-75
2023/12/15 05:28:12;;;;;;;;;15.75;13.00;;;;;10.30;79.36;102822.19;5058752;28;45479;-72
2023/12/15 05:30:37;;;;;;;;;16.75;12.75;;;;;10.46;78.85;102844.56;5057588;28;45453;-74
2023/12/15 05:33:07;;;;;;;;;15.50;10.25;;;;;10.36;78.81;102837.22;5057352;28;45589;-76
2023/12/15 05:35:36;;;;;;;;;11.75;10.00;;;;;10.47;79.40;102854.22;5050579;28;45476;-73
2023/12/15 05:38:02;;;;;;;;;14.75;11.50;;;;;10.20;79.01;102812.16;5068266;28;45874;-72
2023/12/15 05:40:27;;;;;;;;;16.25;11.50;;;;;10.38;79.12;102839.06;5064982;28;46119;-74
2023/12/15 05:42:53;;;;;;;;;14.75;14.00;;;;;10.42;79.13;102849.63;5058460;28;45547;-74
2023/12/15 05:45:19;;;;;;;;;20.75;14.50;;;;;10.24;79.24;102806.19;5062284;28;45442;-73
2023/12/15 05:47:44;;;;;;;;;17.25;12.00;;;;;10.51;78.75;102860.44;5074761;28;45507;-74
2023/12/15 05:50:11;;;;;;;;;15.50;14.25;;;;;10.43;79.38;102852.31;5074995;28;45412;-73
2023/12/15 05:52:46;;;;;;;;;12.00;12.00;;;;;10.52;78.56;102862.25;5060052;28;45289;-75
2023/12/15 05:55:12;;;;;;;;;10.00;10.00;;;;;10.48;79.04;102852.50;5058531;28;45278;-75
2023/12/15 05:57:37;;;;;;;;;19.50;15.50;;;;;10.43;78.96;102861.91;5059030;28;45490;-75
2023/12/15 06:00:07;;;;;;;;;19.25;14.00;;;;;10.40;79.46;102858.34;5057061;28;46619;-71
2023/12/15 06:02:32;;;;;;;;;16.00;13.25;;;;;10.39;79.77;102866.13;5057646;28;45541;-72
2023/12/15 06:04:58;;;;;;;;;17.50;14.25;;;;;10.16;79.05;102829.50;5067360;28;45476;-72
2023/12/15 06:07:24;;;;;;;;;18.25;12.75;;;;;10.42;79.37;102867.97;5057106;28;45233;-72
2023/12/15 06:09:51;;;;;;;;;12.50;11.75;;;;;10.44;78.91;102880.31;5056476;28;45420;-73
2023/12/15 06:12:17;;;;;;;;;13.25;11.50;;;;;9.77;78.83;102756.50;5056997;28;45335;-74
2023/12/15 06:14:42;;;;;;;;;14.75;13.75;;;;;9.90;79.18;102794.47;5056194;28;45515;-74
2023/12/15 06:17:09;;;;;;;;;17.25;16.25;;;;;9.46;79.21;102704.72;5057018;28;45428;-75
2023/12/15 06:19:42;;;;;;;;;18.25;16.00;;;;;10.16;79.09;102845.19;5057510;28;46218;-74
2023/12/15 06:22:08;;;;;;;;;22.00;18.75;;;;;10.13;78.89;102852.94;5057953;28;45433;-74
2023/12/15 06:24:34;;;;;;;;;20.50;16.50;;;;;9.62;79.58;102770.72;5056460;28;45457;-73
2023/12/15 06:27:00;;;;;;;;;18.50;14.25;;;;;9.83;79.60;102817.75;5050060;28;45857;-73
2023/12/15 06:29:25;;;;;;;;;13.25;12.00;;;;;10.18;79.55;102882.81;5048345;28;45667;-71
2023/12/15 06:31:51;;;;;;;;;20.25;15.00;;;;;9.91;79.40;102834.63;5057001;28;45497;-73
2023/12/15 06:34:16;;;;;;;;;21.25;15.25;;;;;10.06;79.62;102865.72;5059775;28;45425;-73
2023/12/15 06:36:43;;;;;;;;;16.00;13.00;;;;;10.31;79.31;102912.13;5059621;28;45414;-73
2023/12/15 06:39:08;;;;;;;;;18.75;13.50;;;;;9.98;80.00;102857.59;5059440;28;46405;-73
2023/12/15 06:41:35;;;;;;;;;17.50;13.00;;;;;10.31;79.45;102925.22;5058788;28;45541;-74
2023/12/15 06:44:00;;;;;;;;;14.50;13.25;;;;;9.40;80.06;102793.41;5060362;28;45422;-73
2023/12/15 06:46:26;;;;;;;;;16.50;13.50;;;;;10.34;79.80;102941.94;5061109;28;45348;-72
2023/12/15 06:48:53;;;;;;;;;17.50;14.75;;;;;9.98;80.17;102871.56;5060846;28;46009;-75
2023/12/15 06:51:19;;;;;;;;;18.75;14.75;;;;;9.84;80.37;102843.06;5068896;28;45329;-74
2023/12/15 06:53:44;;;;;;;;;20.75;16.50;;;;;9.94;80.27;102877.53;5063681;28;45489;-74
2023/12/15 06:56:10;;;;;;;;;22.00;19.75;;;;;9.66;80.67;102848.50;5062765;28;45418;-74
2023/12/15 06:58:38;;;;;;;;;23.25;19.00;;;;;10.07;80.94;102931.25;5061946;28;45502;-75
2023/12/15 07:01:21;;;;;;;;;22.50;19.50;;;;;9.57;81.33;102856.88;5062074;28;45415;-74
2023/12/15 07:03:50;;;;;;;;;26.25;19.25;;;;;9.92;82.02;102921.09;5060430;28;45483;-73
2023/12/15 07:06:18;;;;;;;;;25.00;19.00;;;;;9.82;82.30;102899.69;5057949;28;45513;-74
2023/12/15 07:08:48;;;;;;;;;17.75;14.00;;;;;9.64;82.30;102884.19;5059879;28;46213;-72
2023/12/15 07:11:14;;;;;;;;;29.00;20.50;;;;;9.39;82.15;102854.38;5060660;28;45398;-74
2023/12/15 07:13:39;;;;;;;;;26.25;21.00;;;;;9.70;82.01;102923.66;5059609;28;45463;-73
2023/12/15 07:16:05;;;;;;;;;17.50;17.50;;;;;10.02;82.26;102979.03;5059822;28;45568;-72
2023/12/15 07:18:32;;;;;;;;;24.75;17.75;;;;;10.06;81.73;102997.56;5059695;28;46388;-72
2023/12/15 07:21:02;;;;;;;;;17.75;16.25;;;;;9.78;81.46;102940.56;5063629;28;45559;-75
2023/12/15 07:23:30;;;;;;;;;20.50;16.50;;;;;10.19;81.39;103002.44;5069303;28;44768;-75
2023/12/15 07:25:56;;;;;;;;;19.50;16.75;;;;;10.21;80.91;102996.38;5061251;28;45872;-73
2023/12/15 07:28:22;;;;;;;;;20.50;17.50;;;;;10.26;81.35;103010.56;5058104;28;45451;-76
2023/12/15 07:30:51;;;;;;;;;23.25;16.75;;;;;9.90;81.35;102942.78;5060033;28;45595;-75
2023/12/15 07:33:16;;;;;;;;;24.25;16.00;;;;;9.41;80.66;102839.66;5057884;28;45579;-75
2023/12/15 07:35:44;;;;;;;;;25.50;17.25;;;;;9.96;81.01;102925.59;5049028;28;45404;-73
2023/12/15 07:38:10;;;;;;;;;18.50;14.50;;;;;10.28;81.18;102974.84;5055945;28;46151;-73
2023/12/15 07:40:36;;;;;;;;;20.75;18.50;;;;;9.92;80.88;102914.97;5059435;28;45417;-79
2023/12/15 07:43:02;;;;;;;;;21.75;16.75;;;;;10.38;80.85;103016.31;5058555;28;45463;-75
2023/12/15 07:45:32;;;;;;;;;18.75;17.25;;;;;10.35;80.99;103016.19;5060328;28;45428;-76
2023/12/15 07:47:58;;;;;;;;;19.25;14.75;;;;;10.44;80.61;103023.50;5061249;28;46686;-73
2023/12/15 07:50:24;;;;;;;;;24.50;16.75;;;;;10.46;79.91;103020.09;5058773;28;44791;-75
2023/12/15 07:52:50;;;;;;;;;19.00;14.00;;;;;10.14;79.66;102977.78;5057947;28;45256;-73
2023/12/15 07:55:17;;;;;;;;;19.25;17.00;;;;;10.49;79.94;103029.84;5057912;28;45369;-75
2023/12/15 07:57:43;;;;;;;;;17.75;17.75;;;;;10.45;79.50;103020.94;5058906;28;45535;-76
2023/12/15 08:00:12;;;;;;;;;15.00;9.50;;;;;10.48;79.86;103034.16;5057005;28;45522;-74
2023/12/15 08:02:38;;;;;;;;;24.75;17.25;;;;;10.42;78.98;103031.31;5051819;28;45498;-75
2023/12/15 08:05:04;;;;;;;;;19.50;17.50;;;;;10.32;79.04;103016.03;5058767;28;45288;-74
2023/12/15 08:07:30;;;;;;;;;26.50;20.00;;;;;10.40;79.10;103023.38;5057504;28;46304;-74
2023/12/15 08:10:01;;;;;;;;;18.50;15.75;;;;;10.29;79.16;103010.69;5059474;28;45494;-74
2023/12/15 08:12:27;;;;;;;;;22.50;17.25;;;;;10.48;79.18;103054.22;5065063;28;45385;-76
2023/12/15 08:14:53;;;;;;;;;19.00;14.00;;;;;10.53;79.70;103064.03;5067359;28;45494;-77
2023/12/15 08:17:18;;;;;;;;;22.50;18.50;;;;;10.55;79.19;103066.75;5066935;28;46073;-74
2023/12/15 08:19:49;;;;;;;;;22.00;18.50;;;;;10.55;79.09;103065.00;5061148;28;45340;-73
2023/12/15 08:22:15;;;;;;;;;22.25;15.25;;;;;10.56;78.75;103065.94;5059023;28;45422;-75
2023/12/15 08:24:42;;;;;;;;;27.75;18.75;;;;;10.57;79.07;103070.31;5062239;28;45452;-76
2023/12/15 08:27:08;;;;;;;;;27.75;20.50;;;;;10.12;78.74;102994.28;5056433;28;47028;-73
2023/12/15 08:29:35;;;;;;;;;30.00;23.50;;;;;10.64;78.88;103081.94;5062058;28;45604;-76
2023/12/15 08:32:01;;;;;;;;;23.00;15.50;;;;;10.03;78.63;102970.34;5062310;28;45580;-75
2023/12/15 08:34:27;;;;;;;;;25.75;15.75;;;;;10.23;78.65;103013.03;5058420;28;45489;-76
2023/12/15 08:36:53;;;;;;;;;17.50;16.00;;;;;10.69;78.83;103080.38;5062864;28;45412;-75
2023/12/15 08:39:19;;;;;;;;;22.00;16.25;;;;;10.70;78.54;103085.69;5070708;28;45613;-75
2023/12/15 08:41:44;;;;;;;;;19.25;16.25;;;;;10.58;78.50;103059.00;5059917;28;45907;-73
2023/12/15 08:44:10;;;;;;;;;21.50;17.75;;;;;10.72;77.82;103086.63;5056823;28;45504;-74
2023/12/15 08:46:35;;;;;;;;;20.25;14.25;;;;;10.70;77.78;103101.44;5055294;28;45633;-75
2023/12/15 08:49:01;;;;;;;;;17.75;15.25;;;;;10.76;78.40;103109.50;5056713;28;45518;-72
2023/12/15 08:51:27;;;;;;;;;17.25;14.50;;;;;10.71;77.55;103095.34;5055857;28;46033;-75
2023/12/15 08:53:53;;;;;;;;;16.50;16.50;;;;;10.80;77.66;103103.56;5053411;28;45731;-75
2023/12/15 08:56:19;;;;;;;;;22.50;17.50;;;;;10.51;77.82;103052.63;5061481;27;46333;-75
2023/12/15 08:58:45;;;;;;;;;18.50;16.75;;;;;10.75;77.75;103086.78;5065693;28;45558;-76
2023/12/15 09:01:12;;;;;;;;;16.50;14.00;;;;;10.79;77.80;103090.38;5062109;28;45339;-73
2023/12/15 09:03:37;;;;;;;;;22.00;17.75;;;;;10.88;77.02;103096.00;5065566;28;45430;-73
2023/12/15 09:06:03;;;;;;;;;25.75;18.75;;;;;10.77;77.68;103092.97;5065018;28;46448;-75
2023/12/15 09:08:38;;;;;;;;;25.50;17.50;;;;;10.93;77.10;103117.16;5064065;28;45546;-73
2023/12/15 09:11:05;;;;;;;;;24.75;18.25;;;;;10.98;77.10;103103.38;5064298;28;45494;-74
2023/12/15 09:13:33;;;;;;;;;23.75;17.50;;;;;10.79;77.06;103061.56;5060209;28;45924;-75
2023/12/15 09:15:59;;;;;;;;;24.75;20.00;;;;;10.68;76.52;103052.38;5058266;28;46170;-75
2023/12/15 09:18:24;;;;;;;;;21.50;17.50;;;;;11.01;76.75;103105.25;5055753;28;45611;-74
2023/12/15 09:20:50;;;;;;;;;23.00;18.50;;;;;11.09;77.00;103113.38;5055885;28;45515;-74
2023/12/15 09:23:15;;;;;;;;;20.50;19.75;;;;;11.12;76.38;103117.00;5052532;28;45423;-75
2023/12/15 09:25:41;;;;;;;;;20.00;18.25;;;;;11.09;76.47;103129.13;5055116;28;45468;-76
2023/12/15 09:28:09;;;;;;;;;36.25;23.75;;;;;11.10;76.42;103126.53;5055757;28;45547;-76
2023/12/15 09:30:34;;;;;;;;;21.00;17.00;;;;;11.18;76.29;103129.47;5054681;28;45558;-74
2023/12/15 09:33:00;;;;;;;;;22.75;18.25;;;;;11.23;76.05;103133.16;5050442;28;45544;-74
2023/12/15 09:35:26;;;;;;;;;27.00;19.50;;;;;11.10;76.24;103112.53;5053137;28;45381;-76
2023/12/15 09:38:00;;;;;;;;;23.75;16.50;;;;;11.23;75.37;103135.78;5053740;28;45399;-75
2023/12/15 09:40:29;;;;;;;;;18.50;17.25;;;;;11.37;75.65;103141.56;5053292;27;45613;-73
2023/12/15 09:42:55;;;;;;;;;24.75;19.00;;;;;11.27;75.66;103114.09;5056916;28;45601;-77
2023/12/15 09:45:21;;;;;;;;;20.75;16.75;;;;;11.44;75.26;103123.47;5041461;28;45824;-74
2023/12/15 09:47:47;;;;;;;;;26.50;21.50;;;;;11.41;74.94;103111.94;5043109;28;45430;-75
2023/12/15 09:50:13;;;;;;;;;28.75;24.75;;;;;11.37;75.06;103102.19;5044143;28;45500;-73
2023/12/15 09:52:43;;;;;;;;;26.50;25.25;;;;;11.57;74.29;103147.53;5055890;28;45383;-75
2023/12/15 09:55:10;;;;;;;;;30.00;23.50;;;;;11.71;74.59;103171.66;5057126;28;45446;-72
2023/12/15 09:57:38;;;;;;;;;24.50;15.75;;;;;11.72;74.03;103169.09;5057623;28;45396;-74
2023/12/15 10:00:06;;;;;;;;;19.75;16.75;;;;;11.56;73.95;103149.25;5055763;28;45840;-73
2023/12/15 10:02:35;;;;;;;;;24.00;18.50;;;;;11.73;74.19;103181.38;5056427;28;45747;-73
2023/12/15 10:05:00;;;;;;;;;28.00;20.50;;;;;11.75;74.18;103173.56;5056510;28;45561;-73
2023/12/15 10:07:26;;;;;;;;;25.75;23.50;;;;;11.83;74.09;103186.09;5056316;28;45503;-73
2023/12/15 10:09:52;;;;;;;;;19.50;17.50;;;;;11.87;74.21;103189.78;5056002;28;45334;-71
2023/12/15 10:12:17;;;;;;;;;27.50;22.75;;;;;11.83;73.84;103180.84;5058300;28;45749;-75
2023/12/15 10:14:43;;;;;;;;;29.75;25.00;;;;;11.79;73.73;103167.56;5056329;28;46100;-75
2023/12/15 10:17:10;;;;;;;;;28.50;22.50;;;;;11.88;73.60;103183.69;5056534;28;45467;-74
2023/12/15 10:19:36;;;;;;;;;29.25;23.25;;;;;12.02;73.89;103176.28;5057050;28;45410;-72
2023/12/15 10:22:02;;;;;;;;;30.00;20.50;;;;;12.07;73.31;103175.59;5055177;28;45532;-72
2023/12/15 10:24:28;;;;;;;;;32.50;25.00;;;;;12.22;73.16;103169.09;5054680;28;45425;-74
2023/12/15 10:26:54;;;;;;;;;23.25;21.75;;;;;12.44;72.02;103181.25;5055770;28;45369;-74
2023/12/15 10:29:23;;;;;;;;;29.00;24.25;;;;;12.48;71.61;103151.56;5056171;28;45514;-73
2023/12/15 10:31:51;;;;;;;;;33.25;25.00;;;;;13.26;70.83;103184.69;5056354;28;45500;-73
2023/12/15 10:34:16;;;;;;;;;23.50;20.50;;;;;14.34;67.62;103188.59;5040371;28;47758;-71
2023/12/15 10:36:50;;;;;;;;;30.00;22.50;;;;;15.24;63.59;103160.84;5051273;28;46392;-74
2023/12/15 10:39:18;;;;;;;;;25.75;23.00;;;;;15.13;62.97;103168.50;5054806;28;45398;-73
2023/12/15 10:41:45;;;;;;;;;20.75;17.75;;;;;15.24;62.97;103188.13;5043823;28;45271;-73
2023/12/15 10:44:14;;;;;;;;;24.25;18.50;;;;;15.58;62.09;103195.88;5054709;28;45570;-72
2023/12/15 10:46:44;;;;;;;;;27.33;22.00;;;;;15.73;61.79;103222.66;5057974;28;45446;-74
2023/12/15 10:49:10;;;;;;;;;20.33;17.33;;;;;15.26;61.55;103149.44;5055845;28;45446;-74
2023/12/15 10:51:42;;;;;;;;;29.33;25.67;;;;;15.26;61.78;103198.72;5057811;28;45366;-72
2023/12/15 10:54:09;;;;;;;;;21.67;16.67;;;;;15.06;62.16;103219.38;5055349;28;48220;-73
2023/12/15 10:56:39;;;;;;;;;21.67;19.67;;;;;14.92;62.52;103226.09;5043093;28;45407;-72
2023/12/15 10:59:10;;;;;;;;;25.00;19.67;;;;;14.53;62.35;103193.47;5056256;28;45475;-72
2023/12/15 11:01:40;;;;;;;;;21.67;19.67;;;;;14.48;63.25;103228.50;5045747;28;45562;-74
2023/12/15 11:04:20;;;;;;;;;26.33;19.67;;;;;14.38;64.12;103257.28;5065745;28;46384;-71
2023/12/15 11:06:48;;;;;;;;;17.00;15.67;;;;;14.19;64.46;103257.63;5043869;28;45456;-71
2023/12/15 11:09:29;;;;;;;;;18.67;18.00;;;;;14.08;64.58;103274.88;5046378;28;46898;-74